Main page
METAR-TAF:

METAR-TAF

Airports :

Simón Bolívar International Airport

Caracas, Venezuela

latitude: 10-36N, longitude: 066-59W, elevation: 43 m

Current weather observation

The report was made 38 minutes ago, at 03:00 UTC
Calm wind
Temperature 25°C
Humidity 83%
Pressure 1009 hPa
Visibility 10 km or more
Few clouds at a height of 2000 ft

METAR: SVMI 270300Z 00000KT 9999 FEW020 25/22 Q1009

Time: 23:38 (03:38 UTC)

Forecast

The report was made 5 hours and 38 minutes ago, at 22:00 UTC
Forecast valid from 27 at 00 UTC to 28 at 00 UTC
Wind 5 kt from the Northeast
Visibility 10 km or more
Few clouds at a height of 1600 ft
Becoming
from 27 at 02 UTC to 27 at 07 UTC
Wind kt from the North

TAF: SVMI 262200Z 2700/2800 05005KT 9999 FEW016 TX32/1800Z TN24/1000Z BECMG 2702/2707 07006KT 00000KT

Weather observations and forecasts of more than 4000 airports (METAR and TAF reports).

The available stations are represented by yellow and red dots on the map.

Hover mouse over dot to see the name of the station.

Then click to see weather observations and forecasts.

To change the map : click on the green buttons with a black cross to zoom in, on the green button with a dash to zoom out, or on the green arrows for adjacent maps.


METAR-TAF: